createdAt,value
2022-08-09T00:00:23.096Z,68.49
2022-08-09T00:02:51.522Z,68.45
2022-08-09T00:06:18.689Z,69.06
2022-08-09T00:08:32.035Z,68.83
2022-08-09T00:11:05.869Z,68.67
2022-08-09T00:13:50.310Z,69.50
2022-08-09T00:16:26.190Z,69.13
2022-08-09T00:19:10.289Z,69.00
2022-08-09T00:21:55.547Z,68.76
2022-08-09T00:24:27.252Z,68.61
2022-08-09T00:26:55.989Z,68.07
2022-08-09T00:30:23.397Z,68.43
2022-08-09T00:32:13.115Z,68.61
2022-08-09T00:34:52.949Z,69.80
2022-08-09T00:37:20.065Z,69.27
2022-08-09T00:40:08.966Z,68.68
2022-08-09T00:44:13.805Z,69.94
2022-08-09T00:45:21.540Z,69.04
2022-08-09T00:47:48.513Z,69.53
2022-08-09T00:50:15.782Z,69.77
2022-08-09T00:52:43.899Z,69.50
2022-08-09T00:55:32.741Z,70.38
2022-08-09T00:57:59.535Z,69.46
2022-08-09T01:00:28.527Z,69.23
2022-08-09T01:03:31.109Z,69.16
2022-08-09T01:06:17.592Z,69.71
2022-08-09T01:09:42.095Z,70.12
2022-08-09T01:12:53.186Z,69.84
2022-08-09T01:15:29.732Z,70.10
2022-08-09T01:18:30.556Z,69.76
2022-08-09T01:21:44.609Z,70.74
2022-08-09T01:24:39.643Z,70.53
2022-08-09T01:27:19.959Z,70.53
2022-08-09T01:30:00.711Z,70.50
2022-08-09T01:32:38.760Z,70.23
2022-08-09T01:35:37.219Z,70.23
2022-08-09T01:38:18.287Z,70.40
2022-08-09T01:41:09.434Z,70.81
2022-08-09T01:43:52.021Z,70.19
2022-08-09T01:46:31.673Z,71.56
2022-08-09T01:49:12.724Z,71.02
2022-08-09T01:51:55.816Z,71.16
2022-08-09T01:54:40.964Z,70.43
2022-08-09T01:57:29.064Z,71.73
2022-08-09T02:00:19.151Z,70.94
2022-08-09T02:02:53.956Z,71.38
2022-08-09T02:05:38.207Z,71.71
2022-08-09T02:08:35.716Z,72.01
2022-08-09T02:11:16.988Z,71.67
2022-08-09T02:13:55.244Z,72.97
2022-08-09T02:16:53.406Z,71.82
2022-08-09T02:19:38.949Z,73.44
2022-08-09T02:23:00.317Z,72.83
2022-08-09T02:25:41.980Z,73.45
2022-08-09T02:28:27.102Z,73.61
2022-08-09T02:31:26.026Z,73.54
2022-08-09T02:34:06.882Z,72.82
2022-08-09T02:36:52.548Z,73.30
2022-08-09T02:39:34.186Z,73.38
2022-08-09T02:42:24.761Z,73.81
2022-08-09T02:45:09.608Z,75.09
2022-08-09T02:47:57.391Z,74.48
2022-08-09T02:50:56.261Z,73.93
2022-08-09T02:53:37.130Z,73.45
2022-08-09T02:56:10.266Z,74.71
2022-08-09T02:58:41.342Z,75.20
2022-08-09T03:01:21.886Z,74.80
2022-08-09T03:04:16.813Z,75.42
2022-08-09T03:06:49.179Z,75.35
2022-08-09T03:09:20.586Z,74.77
2022-08-09T03:12:05.519Z,74.80
2022-08-09T03:14:36.544Z,75.06
2022-08-09T03:17:05.762Z,74.68
2022-08-09T03:19:58.232Z,75.13
2022-08-09T03:22:30.315Z,76.02
2022-08-09T03:25:21.471Z,74.58
2022-08-09T03:27:52.770Z,74.53
2022-08-09T03:30:30.095Z,75.30
2022-08-09T03:33:15.314Z,74.66
2022-08-09T03:36:16.011Z,74.32
2022-08-09T03:38:43.468Z,74.65
2022-08-09T03:41:18.395Z,74.73
2022-08-09T03:44:03.401Z,74.37
2022-08-09T03:46:36.934Z,74.28
2022-08-09T03:49:08.668Z,75.83
2022-08-09T03:51:58.538Z,74.54
2022-08-09T03:54:38.423Z,74.73
2022-08-09T03:57:20.252Z,74.17
2022-08-09T03:59:56.067Z,75.38
2022-08-09T04:02:32.803Z,74.45
2022-08-09T04:05:06.757Z,74.82
2022-08-09T04:07:52.906Z,76.29
2022-08-09T04:10:28.778Z,76.04
2022-08-09T04:13:00.736Z,75.12
2022-08-09T04:15:40.563Z,76.03
2022-08-09T04:18:18.111Z,74.95
2022-08-09T04:20:51.277Z,74.81
2022-08-09T04:23:24.362Z,75.31
2022-08-09T04:25:53.327Z,76.84
2022-08-09T04:28:33.103Z,74.85
2022-08-09T04:31:09.288Z,74.38
2022-08-09T04:33:52.923Z,74.95
2022-08-09T04:36:30.212Z,75.33
2022-08-09T04:39:08.792Z,75.48
2022-08-09T04:41:43.392Z,75.56
2022-08-09T04:44:14.544Z,75.79
2022-08-09T04:46:58.219Z,76.04
2022-08-09T04:49:52.441Z,75.23
2022-08-09T04:52:28.915Z,74.50
2022-08-09T04:55:01.380Z,75.39
2022-08-09T04:57:53.895Z,76.72
2022-08-09T05:00:17.267Z,74.71
2022-08-09T05:02:48.755Z,74.76
2022-08-09T05:05:32.171Z,75.14
2022-08-09T05:08:08.265Z,75.80
2022-08-09T05:10:36.779Z,74.28
2022-08-09T05:13:04.197Z,74.23
2022-08-09T05:15:43.242Z,73.61
2022-08-09T05:18:39.043Z,73.44
2022-08-09T05:21:09.806Z,73.93
2022-08-09T05:23:57.115Z,72.12
2022-08-09T05:26:35.771Z,74.36
2022-08-09T05:29:05.368Z,73.66
2022-08-09T05:31:39.823Z,71.89
2022-08-09T05:34:16.894Z,71.96
2022-08-09T05:36:47.105Z,71.05
2022-08-09T05:39:28.640Z,70.86
2022-08-09T05:42:01.512Z,70.83
2022-08-09T05:44:33.248Z,70.37
2022-08-09T05:47:04.943Z,70.49
2022-08-09T05:50:29.979Z,71.09
2022-08-09T05:52:24.739Z,69.91
2022-08-09T05:54:52.298Z,70.07
2022-08-09T05:57:19.567Z,69.01
2022-08-09T05:59:52.542Z,68.46
2022-08-09T06:02:20.143Z,67.64
2022-08-09T06:04:49.054Z,68.32
2022-08-09T06:07:21.300Z,67.72
2022-08-09T06:09:54.880Z,69.41
2022-08-09T06:12:31.130Z,67.98
2022-08-09T06:15:01.347Z,66.97
2022-08-09T06:17:39.902Z,67.97
2022-08-09T06:20:09.220Z,67.27
2022-08-09T06:22:36.894Z,65.15
2022-08-09T06:25:04.930Z,66.26
2022-08-09T06:27:42.175Z,65.85
2022-08-09T06:30:13.937Z,66.46
2022-08-09T06:32:58.900Z,65.51
2022-08-09T06:35:35.804Z,64.65
2022-08-09T06:38:17.057Z,63.49
2022-08-09T06:40:46.334Z,63.15
2022-08-09T06:43:14.253Z,65.08
2022-08-09T06:46:07.785Z,64.72
2022-08-09T06:48:31.068Z,65.98
2022-08-09T06:51:00.197Z,64.38
2022-08-09T06:53:33.198Z,64.58
2022-08-09T06:56:07.920Z,65.32
2022-08-09T07:00:46.868Z,64.48
2022-08-09T07:01:53.766Z,62.06
2022-08-09T07:04:20.158Z,60.26
2022-08-09T07:06:53.360Z,61.56
2022-08-09T07:09:57.105Z,58.49
2022-08-09T07:12:18.211Z,56.14
2022-08-09T07:14:50.745Z,56.30
2022-08-09T07:17:20.318Z,56.98
2022-08-09T07:19:51.039Z,56.90
2022-08-09T07:22:42.224Z,56.38
2022-08-09T07:25:11.934Z,55.46
2022-08-09T07:27:53.639Z,56.89
2022-08-09T07:30:25.218Z,55.30
2022-08-09T07:32:52.881Z,53.76
2022-08-09T07:35:22.586Z,51.23
2022-08-09T07:37:50.660Z,51.79
2022-08-09T07:40:26.732Z,51.07
2022-08-09T07:42:59.948Z,50.83
2022-08-09T07:45:39.626Z,50.69
2022-08-09T07:48:28.530Z,49.48
2022-08-09T07:51:10.262Z,48.51
2022-08-09T07:54:06.855Z,47.88
2022-08-09T07:56:38.915Z,47.86
2022-08-09T07:59:25.189Z,47.83
2022-08-09T08:01:55.993Z,49.46
2022-08-09T08:04:31.889Z,50.22
2022-08-09T08:07:14.932Z,50.57
2022-08-09T08:10:08.027Z,51.12
2022-08-09T08:12:45.616Z,48.13
2022-08-09T08:15:24.073Z,51.04
2022-08-09T08:17:57.857Z,49.99
2022-08-09T08:20:32.608Z,48.38
2022-08-09T08:23:15.907Z,45.86
2022-08-09T08:25:48.339Z,47.47
2022-08-09T08:28:26.107Z,45.15
2022-08-09T08:31:14.221Z,47.13
2022-08-09T08:33:53.832Z,44.81
2022-08-09T08:36:29.715Z,44.52
2022-08-09T08:39:00.307Z,44.54
2022-08-09T08:41:50.291Z,44.01
2022-08-09T08:44:26.822Z,44.08
2022-08-09T08:47:02.289Z,43.66
2022-08-09T08:49:46.793Z,44.04
2022-08-09T08:55:18.970Z,45.59
2022-08-09T08:57:56.919Z,45.23
2022-08-09T09:00:34.302Z,42.59
2022-08-09T09:03:11.408Z,43.48
2022-08-09T09:05:58.931Z,45.46
2022-08-09T09:08:43.062Z,43.09
2022-08-09T09:11:13.409Z,42.07
2022-08-09T09:13:57.301Z,42.63
2022-08-09T09:16:35.164Z,42.55
2022-08-09T09:22:11.919Z,39.58
2022-08-09T09:24:51.957Z,41.10
2022-08-09T09:28:05.075Z,40.62
2022-08-09T09:30:31.571Z,40.31
2022-08-09T09:33:15.549Z,40.53
2022-08-09T09:36:20.568Z,42.07
2022-08-09T09:38:57.222Z,37.99
2022-08-09T09:41:25.002Z,39.59
2022-08-09T09:44:11.642Z,38.26
2022-08-09T09:46:50.565Z,40.19
2022-08-09T09:49:56.338Z,38.40
2022-08-09T09:52:35.742Z,39.46
2022-08-09T09:55:24.173Z,38.50
2022-08-09T09:58:15.792Z,38.47
2022-08-09T10:00:59.098Z,38.04
2022-08-09T10:03:57.758Z,38.15
2022-08-09T10:06:42.446Z,38.36
2022-08-09T10:09:23.152Z,38.47
2022-08-09T10:12:26.942Z,38.66
2022-08-09T10:14:51.753Z,38.18
2022-08-09T10:17:38.893Z,39.02
2022-08-09T10:20:33.069Z,37.67
2022-08-09T10:23:33.531Z,38.29
2022-08-09T10:26:07.498Z,36.69
2022-08-09T10:28:40.474Z,36.42
2022-08-09T10:32:20.920Z,36.70
2022-08-09T10:34:08.362Z,35.39
2022-08-09T10:36:42.249Z,36.06
2022-08-09T10:39:16.014Z,37.58
2022-08-09T10:41:48.302Z,36.19
2022-08-09T10:44:30.526Z,35.93
2022-08-09T10:48:19.328Z,36.09
2022-08-09T10:51:29.736Z,36.77
2022-08-09T10:54:13.909Z,36.20
2022-08-09T10:56:43.863Z,36.43
2022-08-09T10:59:30.699Z,36.34
2022-08-09T11:03:15.623Z,35.50
2022-08-09T11:05:24.961Z,35.69
2022-08-09T11:08:47.548Z,34.79
2022-08-09T11:11:18.439Z,36.50
2022-08-09T11:13:50.633Z,36.03
2022-08-09T11:16:40.995Z,34.25
2022-08-09T11:19:10.964Z,34.17
2022-08-09T11:22:16.558Z,34.92
2022-08-09T11:25:19.222Z,35.18
2022-08-09T11:28:08.076Z,34.70
2022-08-09T11:30:48.105Z,34.34
2022-08-09T11:33:17.953Z,35.62
2022-08-09T11:35:56.449Z,34.48
2022-08-09T11:38:35.058Z,33.65
2022-08-09T11:41:15.789Z,33.91
2022-08-09T11:43:49.389Z,34.66
2022-08-09T11:46:33.038Z,34.99
2022-08-09T11:49:05.201Z,34.85
2022-08-09T11:53:16.041Z,33.13
2022-08-09T11:55:52.322Z,34.94
2022-08-09T11:58:30.325Z,33.22
2022-08-09T12:01:08.938Z,34.53
2022-08-09T12:03:57.428Z,34.77
2022-08-09T12:06:32.610Z,35.49
2022-08-09T12:09:15.086Z,35.51
2022-08-09T12:12:12.977Z,35.86
2022-08-09T12:15:04.144Z,35.41
2022-08-09T12:17:44.504Z,37.12
2022-08-09T12:20:34.616Z,36.16
2022-08-09T12:23:04.662Z,35.55
2022-08-09T12:25:38.048Z,35.68
2022-08-09T12:28:58.955Z,35.71
2022-08-09T12:31:58.277Z,36.32
2022-08-09T12:34:31.388Z,34.26
2022-08-09T12:37:21.713Z,33.04
2022-08-09T12:40:18.085Z,33.15
2022-08-09T12:42:50.654Z,32.35
2022-08-09T12:45:32.673Z,33.52
2022-08-09T12:48:20.269Z,33.12
2022-08-09T12:50:58.134Z,35.13
2022-08-09T12:53:40.747Z,33.01
2022-08-09T12:56:43.882Z,33.15
2022-08-09T12:59:23.952Z,34.88
2022-08-09T13:01:59.845Z,36.33
2022-08-09T13:04:37.153Z,34.24
2022-08-09T13:07:19.978Z,34.28
2022-08-09T13:10:04.662Z,34.47
2022-08-09T13:12:32.147Z,34.01
2022-08-09T13:15:10.416Z,34.17
2022-08-09T13:18:03.203Z,33.59
2022-08-09T13:21:03.967Z,33.23
2022-08-09T13:24:17.459Z,33.46
2022-08-09T13:26:50.049Z,33.58
2022-08-09T13:29:28.541Z,34.63
2022-08-09T13:32:17.773Z,35.76
2022-08-09T13:34:49.389Z,35.49
2022-08-09T13:37:50.824Z,33.82
2022-08-09T13:41:50.812Z,33.90
2022-08-09T13:42:57.763Z,33.32
2022-08-09T13:45:32.143Z,33.23
2022-08-09T13:48:11.875Z,32.48
2022-08-09T13:50:42.815Z,34.51
2022-08-09T13:53:10.444Z,34.58
2022-08-09T13:55:37.915Z,33.99
2022-08-09T13:58:05.277Z,34.01
2022-08-09T14:00:48.236Z,34.17
2022-08-09T14:04:02.547Z,33.69
2022-08-09T14:06:25.300Z,35.03
2022-08-09T14:08:54.892Z,33.68
2022-08-09T14:11:22.248Z,34.51
2022-08-09T14:14:22.539Z,33.72
2022-08-09T14:16:37.655Z,33.49
2022-08-09T14:19:07.828Z,32.27
2022-08-09T14:21:35.023Z,31.40
2022-08-09T14:24:10.380Z,30.74
2022-08-09T14:26:51.176Z,29.90
2022-08-09T14:30:04.052Z,30.21
2022-08-09T14:32:11.311Z,28.80
2022-08-09T14:34:41.307Z,28.19
2022-08-09T14:37:09.727Z,29.15
2022-08-09T14:39:47.977Z,28.88
2022-08-09T14:42:32.026Z,29.99
2022-08-09T14:46:40.122Z,28.13
2022-08-09T14:47:58.249Z,28.13
2022-08-09T14:50:34.604Z,28.76
2022-08-09T14:53:11.355Z,28.74
2022-08-09T14:55:42.112Z,26.72
2022-08-09T14:58:11.943Z,27.39
2022-08-09T15:00:39.864Z,27.54
2022-08-09T15:03:10.949Z,27.66
2022-08-09T15:05:40.252Z,28.44
2022-08-09T15:08:20.311Z,27.62
2022-08-09T15:11:00.597Z,28.52
2022-08-09T15:13:47.750Z,28.93
2022-08-09T15:16:15.923Z,28.52
2022-08-09T15:18:43.094Z,29.49
2022-08-09T15:21:58.157Z,30.46
2022-08-09T15:24:06.020Z,31.15
2022-08-09T15:26:46.441Z,30.25
2022-08-09T15:30:58.542Z,29.95
2022-08-09T15:32:04.046Z,29.73
2022-08-09T15:34:35.164Z,27.46
2022-08-09T15:37:38.064Z,27.00
2022-08-09T15:40:19.836Z,27.39
2022-08-09T15:42:50.826Z,26.82
2022-08-09T15:45:22.082Z,25.85
2022-08-09T15:48:05.039Z,25.24
2022-08-09T15:50:38.825Z,26.13
2022-08-09T15:53:18.776Z,26.59
2022-08-09T15:56:20.948Z,27.48
2022-08-09T15:58:41.054Z,27.43
2022-08-09T16:01:08.484Z,27.79
2022-08-09T16:03:38.796Z,27.30
2022-08-09T16:06:29.436Z,27.08
2022-08-09T16:09:01.295Z,26.05
2022-08-09T16:11:33.167Z,26.34
2022-08-09T16:14:07.151Z,26.09
2022-08-09T16:16:37.904Z,27.53
2022-08-09T16:19:09.643Z,28.48
2022-08-09T16:21:40.819Z,28.45
2022-08-09T16:24:29.715Z,29.11
2022-08-09T16:26:57.921Z,29.52
2022-08-09T16:29:36.666Z,29.95
2022-08-09T16:32:19.170Z,30.56
2022-08-09T16:34:56.626Z,31.45
2022-08-09T16:37:54.095Z,32.03
2022-08-09T16:40:29.659Z,32.65
2022-08-09T16:43:06.431Z,32.93
2022-08-09T16:45:33.766Z,33.30
2022-08-09T16:48:42.959Z,32.75
2022-08-09T16:50:49.910Z,34.07
2022-08-09T16:53:34.049Z,34.40
2022-08-09T16:56:07.653Z,33.77
2022-08-09T16:58:42.750Z,33.88
2022-08-09T17:01:23.539Z,34.68
2022-08-09T17:03:52.238Z,35.24
2022-08-09T17:06:31.184Z,35.44
2022-08-09T17:09:17.801Z,35.25
2022-08-09T17:11:47.982Z,36.22
2022-08-09T17:14:28.148Z,36.43
2022-08-09T17:17:02.787Z,36.81
2022-08-09T17:19:47.652Z,36.43
2022-08-09T17:22:28.877Z,37.04
2022-08-09T17:25:10.002Z,38.64
2022-08-09T17:27:49.370Z,39.63
2022-08-09T17:30:30.944Z,39.10
2022-08-09T17:33:22.939Z,38.43
2022-08-09T17:35:50.814Z,38.39
2022-08-09T17:38:30.744Z,38.43
2022-08-09T17:41:02.213Z,38.55
2022-08-09T17:43:35.465Z,41.20
2022-08-09T17:46:09.046Z,39.67
2022-08-09T17:48:52.288Z,39.66
2022-08-09T17:51:21.995Z,41.65
2022-08-09T17:53:54.667Z,42.84
2022-08-09T17:56:35.622Z,43.56
2022-08-09T17:59:11.791Z,43.06
2022-08-09T18:02:12.255Z,43.56
2022-08-09T18:04:31.180Z,43.99
2022-08-09T18:06:59.439Z,43.21
2022-08-09T18:09:35.856Z,44.19
2022-08-09T18:12:19.594Z,44.86
2022-08-09T18:14:54.398Z,43.93
2022-08-09T18:18:01.642Z,43.40
2022-08-09T18:20:55.427Z,44.64
2022-08-09T18:23:04.893Z,43.96
2022-08-09T18:25:52.576Z,44.18
2022-08-09T18:30:42.022Z,44.63
2022-08-09T18:31:14.772Z,44.64
2022-08-09T18:33:53.673Z,44.87
2022-08-09T18:36:26.046Z,45.12
2022-08-09T18:39:02.626Z,44.66
2022-08-09T18:41:35.105Z,46.02
2022-08-09T18:44:13.242Z,45.27
2022-08-09T18:46:47.334Z,46.08
2022-08-09T18:49:19.192Z,46.53
2022-08-09T18:51:54.644Z,48.44
2022-08-09T18:54:28.395Z,47.31
2022-08-09T18:56:56.737Z,48.09
2022-08-09T18:59:37.445Z,47.99
2022-08-09T19:02:18.151Z,48.40
2022-08-09T19:04:47.965Z,48.69
2022-08-09T19:07:32.487Z,48.35
2022-08-09T19:10:15.568Z,48.53
2022-08-09T19:12:50.735Z,48.73
2022-08-09T19:15:22.186Z,50.11
2022-08-09T19:17:56.381Z,49.93
2022-08-09T19:20:24.401Z,50.24
2022-08-09T19:22:54.491Z,50.74
2022-08-09T19:25:41.935Z,51.16
2022-08-09T19:28:13.411Z,50.77
2022-08-09T19:30:44.654Z,51.62
2022-08-09T19:33:19.396Z,52.06
2022-08-09T19:35:58.319Z,52.20
2022-08-09T19:38:27.746Z,52.09
2022-08-09T19:40:59.747Z,52.14
2022-08-09T19:44:00.430Z,53.06
2022-08-09T19:46:16.450Z,53.09
2022-08-09T19:50:10.139Z,54.21
2022-08-09T19:51:54.935Z,54.10
2022-08-09T19:54:28.279Z,54.95
2022-08-09T19:56:56.681Z,54.60
2022-08-09T19:59:58.546Z,54.04
2022-08-09T20:02:17.353Z,54.19
2022-08-09T20:05:01.981Z,54.82
2022-08-09T20:07:59.001Z,55.44
2022-08-09T20:10:34.000Z,55.78
2022-08-09T20:13:05.012Z,55.70
2022-08-09T20:16:35.369Z,55.58
2022-08-09T20:18:22.345Z,56.00
2022-08-09T20:20:55.056Z,56.33
2022-08-09T20:23:23.619Z,56.98
2022-08-09T20:25:53.571Z,57.00
2022-08-09T20:28:32.040Z,57.94
2022-08-09T20:31:13.734Z,57.13
2022-08-09T20:33:44.350Z,57.55
2022-08-09T20:36:13.879Z,57.37
2022-08-09T20:39:18.781Z,58.11
2022-08-09T20:41:35.292Z,58.03
2022-08-09T20:44:10.081Z,58.42
2022-08-09T20:46:44.770Z,58.67
2022-08-09T20:49:16.753Z,58.97
2022-08-09T20:51:50.657Z,59.00
2022-08-09T20:54:18.215Z,59.94
2022-08-09T20:56:49.894Z,60.21
2022-08-09T21:00:19.091Z,59.92
2022-08-09T21:02:17.383Z,60.34
2022-08-09T21:05:56.504Z,60.33
2022-08-09T21:07:40.293Z,60.57
2022-08-09T21:10:11.977Z,60.75
2022-08-09T21:12:39.362Z,61.29
2022-08-09T21:15:12.639Z,61.84
2022-08-09T21:18:29.761Z,61.85
2022-08-09T21:20:30.268Z,62.43
2022-08-09T21:22:59.736Z,63.08
2022-08-09T21:25:54.188Z,63.63
2022-08-09T21:28:34.529Z,64.59
2022-08-09T21:31:13.575Z,64.79
2022-08-09T21:33:50.333Z,64.99
2022-08-09T21:36:27.916Z,65.78
2022-08-09T21:38:59.457Z,65.82
2022-08-09T21:42:03.526Z,65.37
2022-08-09T21:44:32.711Z,66.79
2022-08-09T21:47:09.826Z,66.87
2022-08-09T21:49:42.634Z,67.59
2022-08-09T21:52:20.301Z,67.54
2022-08-09T21:55:03.132Z,68.05
2022-08-09T21:57:59.201Z,68.18
2022-08-09T22:00:33.777Z,68.34
2022-08-09T22:03:19.139Z,69.30
2022-08-09T22:05:47.621Z,69.18
2022-08-09T22:08:19.042Z,69.48
2022-08-09T22:11:49.645Z,70.03
2022-08-09T22:13:37.469Z,69.68
2022-08-09T22:16:09.249Z,70.27
2022-08-09T22:18:53.282Z,70.94
2022-08-09T22:21:44.818Z,71.31
2022-08-09T22:24:16.967Z,71.68
2022-08-09T22:26:51.040Z,71.85
2022-08-09T22:29:25.548Z,72.44
2022-08-09T22:31:57.404Z,72.04
2022-08-09T22:34:28.828Z,72.44
2022-08-09T22:36:59.645Z,73.01
2022-08-09T22:39:57.135Z,73.46
2022-08-09T22:42:22.337Z,73.66
2022-08-09T22:45:00.038Z,74.33
2022-08-09T22:48:11.475Z,74.38
2022-08-09T22:50:16.652Z,75.01
2022-08-09T22:52:43.638Z,74.63
2022-08-09T22:55:22.698Z,74.99
2022-08-09T22:58:00.134Z,75.20
2022-08-09T23:00:29.409Z,74.88
2022-08-09T23:02:57.226Z,76.12
2022-08-09T23:05:25.610Z,77.08
2022-08-09T23:08:22.330Z,76.37
2022-08-09T23:10:50.954Z,77.91
2022-08-09T23:13:17.929Z,77.59
2022-08-09T23:16:03.421Z,78.22
2022-08-09T23:18:31.283Z,78.47
2022-08-09T23:20:58.492Z,79.14
2022-08-09T23:23:25.538Z,79.34
2022-08-09T23:25:52.633Z,79.23
2022-08-09T23:28:19.687Z,79.59
2022-08-09T23:30:51.994Z,80.13
2022-08-09T23:33:22.132Z,80.46
2022-08-09T23:36:07.136Z,80.90
2022-08-09T23:38:36.073Z,80.21
2022-08-09T23:41:27.954Z,80.82
2022-08-09T23:43:59.607Z,79.72
2022-08-09T23:46:29.643Z,81.14
2022-08-09T23:48:59.108Z,81.18
2022-08-09T23:51:27.795Z,81.13
2022-08-09T23:54:02.621Z,81.78
2022-08-09T23:56:51.947Z,82.01
2022-08-09T23:59:22.416Z,81.87
